createdAt,value
2022-11-05T00:00:13.546Z,9.80
2022-11-05T00:05:17.199Z,9.90
2022-11-05T00:10:21.666Z,10.00
2022-11-05T00:15:23.749Z,10.10
2022-11-05T00:20:27.369Z,10.20
2022-11-05T00:25:29.536Z,10.30
2022-11-05T00:30:31.692Z,10.20
2022-11-05T00:35:35.218Z,10.30
2022-11-05T00:40:37.717Z,10.20
2022-11-05T00:45:39.882Z,10.10
2022-11-05T00:50:43.436Z,10.10
2022-11-05T00:55:46.462Z,9.90
2022-11-05T01:00:50.925Z,9.80
2022-11-05T01:05:56.848Z,9.70
2022-11-05T01:11:00.142Z,9.60
2022-11-05T01:16:07.119Z,9.40
2022-11-05T01:21:14.882Z,9.40
2022-11-05T01:26:18.022Z,9.30
2022-11-05T01:31:20.718Z,9.20
2022-11-05T01:36:24.253Z,9.20
2022-11-05T01:41:26.359Z,9.10
2022-11-05T01:46:32.777Z,9.00
2022-11-05T01:51:38.604Z,8.90
2022-11-05T01:56:44.252Z,8.80
2022-11-05T02:01:46.789Z,8.80
2022-11-05T02:06:50.531Z,8.80
2022-11-05T02:11:52.617Z,8.70
2022-11-05T02:17:01.278Z,8.60
2022-11-05T02:23:00.511Z,8.60
2022-11-05T02:28:27.265Z,8.60
2022-11-05T02:33:41.844Z,8.50
2022-11-05T02:38:52.863Z,8.50
2022-11-05T02:44:08.734Z,8.50
2022-11-05T02:49:19.737Z,8.50
2022-11-05T02:54:27.026Z,8.40
2022-11-05T02:59:28.930Z,8.40
2022-11-05T03:04:32.740Z,8.40
2022-11-05T03:10:08.429Z,8.40
2022-11-05T03:15:20.579Z,8.30
2022-11-05T03:20:29.055Z,8.30
2022-11-05T03:25:37.094Z,8.30
2022-11-05T03:30:42.328Z,8.30
2022-11-05T03:35:48.233Z,8.30
2022-11-05T03:40:54.559Z,8.30
2022-11-05T03:46:01.033Z,8.20
2022-11-05T03:51:10.136Z,8.20
2022-11-05T03:56:17.934Z,8.20
2022-11-05T04:01:20.175Z,8.20
2022-11-05T04:06:24.018Z,8.20
2022-11-05T04:11:26.221Z,8.20
2022-11-05T04:16:28.442Z,8.20
2022-11-05T04:21:31.958Z,8.20
2022-11-05T04:26:34.304Z,8.20
2022-11-05T04:31:36.659Z,8.20
2022-11-05T04:36:40.226Z,8.20
2022-11-05T04:41:42.506Z,8.20
2022-11-05T04:46:44.598Z,8.20
2022-11-05T04:51:48.183Z,8.20
2022-11-05T04:56:50.357Z,8.20
2022-11-05T05:01:52.835Z,8.20
2022-11-05T05:06:56.434Z,8.20
2022-11-05T05:11:58.515Z,8.20
2022-11-05T05:17:00.738Z,8.20
2022-11-05T05:22:04.235Z,8.20
2022-11-05T05:27:06.362Z,8.20
2022-11-05T05:32:08.532Z,8.20
2022-11-05T05:37:12.165Z,8.20
2022-11-05T05:42:14.780Z,8.20
2022-11-05T05:47:16.943Z,8.20
2022-11-05T05:52:20.561Z,8.20
2022-11-05T05:57:22.674Z,8.20
2022-11-05T06:02:24.924Z,8.20
2022-11-05T06:07:33.053Z,8.20
2022-11-05T06:12:38.744Z,8.20
2022-11-05T06:17:42.991Z,8.30
2022-11-05T06:22:54.784Z,8.30
2022-11-05T06:27:56.865Z,8.40
2022-11-05T06:33:03.791Z,8.50
2022-11-05T06:38:07.272Z,8.50
2022-11-05T06:43:09.633Z,8.60
2022-11-05T06:48:11.981Z,8.60
2022-11-05T06:53:15.926Z,8.70
2022-11-05T06:58:18.170Z,8.80
2022-11-05T07:03:20.275Z,8.90
2022-11-05T07:08:23.814Z,9.10
2022-11-05T07:13:26.278Z,9.50
2022-11-05T07:18:28.403Z,10.00
2022-11-05T07:23:31.938Z,10.40
2022-11-05T07:28:34.048Z,10.60
2022-11-05T07:33:36.829Z,10.60
2022-11-05T07:38:40.726Z,10.50
2022-11-05T07:43:42.888Z,10.40
2022-11-05T07:48:44.983Z,10.70
2022-11-05T07:53:48.745Z,11.40
2022-11-05T07:58:50.869Z,12.30
2022-11-05T08:03:53.043Z,13.30
2022-11-05T08:08:56.674Z,14.30
2022-11-05T08:13:58.873Z,15.20
2022-11-05T08:19:01.042Z,16.00
2022-11-05T08:24:05.025Z,16.70
2022-11-05T08:29:07.188Z,17.20
2022-11-05T08:34:09.541Z,17.70
2022-11-05T08:39:16.942Z,18.10
2022-11-05T08:44:19.531Z,18.40
2022-11-05T08:49:21.861Z,18.60
2022-11-05T08:54:25.379Z,18.70
2022-11-05T08:59:27.563Z,18.90
2022-11-05T09:04:30.313Z,18.90
2022-11-05T09:09:35.405Z,18.90
2022-11-05T09:14:37.587Z,19.00
2022-11-05T09:19:40.256Z,19.10
2022-11-05T09:24:44.237Z,19.20
2022-11-05T09:29:46.424Z,19.30
2022-11-05T09:34:48.644Z,19.40
2022-11-05T09:39:52.187Z,19.40
2022-11-05T09:44:57.791Z,19.30
2022-11-05T09:50:03.551Z,19.30
2022-11-05T09:55:20.972Z,19.40
2022-11-05T10:00:23.383Z,19.50
2022-11-05T10:05:27.556Z,19.60
2022-11-05T10:10:41.077Z,19.60
2022-11-05T10:15:50.950Z,19.60
2022-11-05T10:20:53.306Z,19.70
2022-11-05T10:26:00.723Z,19.90
2022-11-05T10:31:06.017Z,20.10
2022-11-05T10:36:12.383Z,20.10
2022-11-05T10:41:43.396Z,20.10
2022-11-05T10:46:52.096Z,20.10
2022-11-05T10:51:57.242Z,20.20
2022-11-05T10:57:00.960Z,20.30
2022-11-05T11:02:17.008Z,20.50
2022-11-05T11:07:23.280Z,20.60
2022-11-05T11:12:40.920Z,20.70
2022-11-05T11:17:46.086Z,20.80
2022-11-05T11:23:00.550Z,21.10
2022-11-05T11:28:08.058Z,21.40
2022-11-05T11:33:13.254Z,21.50
2022-11-05T11:38:17.301Z,21.70
2022-11-05T11:43:28.102Z,21.70
2022-11-05T11:48:31.532Z,21.50
2022-11-05T11:53:36.913Z,21.40
2022-11-05T11:58:44.804Z,21.60
2022-11-05T12:03:51.658Z,21.70
2022-11-05T12:09:06.962Z,21.80
2022-11-05T12:14:21.968Z,21.80
2022-11-05T12:19:34.892Z,21.80
2022-11-05T12:25:05.262Z,21.60
2022-11-05T12:30:14.049Z,21.10
2022-11-05T12:35:42.768Z,20.50
2022-11-05T12:41:09.928Z,20.00
2022-11-05T12:46:26.762Z,19.60
2022-11-05T12:51:44.567Z,19.20
2022-11-05T12:56:51.375Z,18.80
2022-11-05T13:02:00.937Z,18.40
2022-11-05T13:07:08.051Z,18.10
2022-11-05T13:12:14.054Z,18.00
2022-11-05T13:17:20.644Z,17.80
2022-11-05T13:22:33.469Z,17.50
2022-11-05T13:27:53.682Z,17.30
2022-11-05T13:33:03.235Z,17.10
2022-11-05T13:38:13.975Z,16.80
2022-11-05T13:43:34.326Z,16.60
2022-11-05T13:49:20.138Z,16.40
2022-11-05T13:54:50.236Z,16.10
2022-11-05T14:00:05.775Z,15.90
2022-11-05T14:05:23.032Z,15.80
2022-11-05T14:10:29.036Z,15.60
2022-11-05T14:15:34.673Z,15.70
2022-11-05T14:20:54.252Z,15.60
2022-11-05T14:25:57.913Z,15.50
2022-11-05T14:31:00.749Z,15.40
2022-11-05T14:36:36.945Z,15.40
2022-11-05T14:41:57.123Z,15.20
2022-11-05T14:47:03.177Z,15.10
2022-11-05T14:52:10.151Z,14.90
2022-11-05T14:57:14.457Z,14.80
2022-11-05T15:02:19.199Z,14.80
2022-11-05T15:07:38.100Z,14.70
2022-11-05T15:12:45.593Z,14.60
2022-11-05T15:17:58.941Z,14.60
2022-11-05T15:23:06.423Z,14.50
2022-11-05T15:28:20.339Z,14.50
2022-11-05T15:33:23.008Z,14.40
2022-11-05T15:38:29.870Z,14.30
2022-11-05T15:43:32.921Z,14.20
2022-11-05T15:48:36.611Z,14.10
2022-11-05T15:54:29.023Z,14.00
2022-11-05T15:59:23.799Z,13.90
2022-11-05T16:04:28.886Z,13.80
2022-11-05T16:09:36.168Z,13.70
2022-11-05T16:14:38.492Z,13.60
2022-11-05T16:19:42.729Z,13.60
2022-11-05T16:24:48.177Z,13.50
2022-11-05T16:29:53.366Z,13.40
2022-11-05T16:34:57.942Z,13.40
2022-11-05T16:40:01.691Z,13.50
2022-11-05T16:45:05.260Z,13.50
2022-11-05T16:50:19.063Z,13.50
2022-11-05T16:55:31.046Z,13.50
2022-11-05T17:06:44.702Z,13.40
2022-11-05T17:18:32.330Z,13.30
2022-11-05T17:25:25.495Z,13.30
2022-11-05T17:30:12.945Z,13.20
2022-11-05T17:35:15.909Z,13.10
2022-11-05T17:40:20.235Z,13.10
2022-11-05T17:45:24.002Z,13.00
2022-11-05T17:50:26.535Z,13.00
2022-11-05T17:55:28.886Z,12.90
2022-11-05T18:00:32.716Z,12.90
2022-11-05T18:05:35.214Z,12.90
2022-11-05T18:10:40.165Z,12.80
2022-11-05T18:15:43.896Z,12.80
2022-11-05T18:20:46.208Z,12.80
2022-11-05T18:25:48.464Z,12.80
2022-11-05T18:30:54.378Z,12.80
2022-11-05T18:35:56.890Z,12.70
2022-11-05T18:41:05.216Z,12.70
2022-11-05T18:46:12.946Z,12.70
2022-11-05T18:51:27.174Z,12.60
2022-11-05T18:56:29.655Z,12.60
2022-11-05T19:01:33.496Z,12.60
2022-11-05T19:06:36.799Z,12.50
2022-11-05T19:11:39.484Z,12.50
2022-11-05T19:16:43.314Z,12.50
2022-11-05T19:21:45.619Z,12.50
2022-11-05T19:26:47.912Z,12.40
2022-11-05T19:31:51.875Z,12.40
2022-11-05T19:36:54.437Z,12.40
2022-11-05T19:42:02.964Z,12.40
2022-11-05T19:47:07.783Z,12.30
2022-11-05T19:52:10.305Z,12.30
2022-11-05T19:57:13.385Z,12.30
2022-11-05T20:02:17.268Z,12.30
2022-11-05T20:07:20.075Z,12.30
2022-11-05T20:12:22.304Z,12.30
2022-11-05T20:17:26.067Z,12.30
2022-11-05T20:22:28.649Z,12.30
2022-11-05T20:27:31.085Z,12.30
2022-11-05T20:32:34.963Z,12.30
2022-11-05T20:37:37.239Z,12.30
2022-11-05T20:42:42.244Z,12.40
2022-11-05T20:47:46.705Z,12.40
2022-11-05T20:52:49.044Z,12.40
2022-11-05T20:57:52.905Z,12.40
2022-11-05T21:02:56.969Z,12.50
2022-11-05T21:07:59.434Z,12.50
2022-11-05T21:13:01.957Z,12.50
2022-11-05T21:18:05.836Z,12.50
2022-11-05T21:23:08.086Z,12.50
2022-11-05T21:28:12.078Z,12.60
2022-11-05T21:33:18.302Z,12.50
2022-11-05T21:38:20.861Z,12.50
2022-11-05T21:43:23.127Z,12.50
2022-11-05T21:48:26.888Z,12.40
2022-11-05T21:53:29.270Z,12.40
2022-11-05T21:58:31.858Z,12.40
2022-11-05T22:03:35.601Z,12.40
2022-11-05T22:08:38.000Z,12.40
2022-11-05T22:13:40.326Z,12.40
2022-11-05T22:18:45.770Z,12.30
2022-11-05T22:23:52.255Z,12.20
2022-11-05T22:28:55.190Z,12.10
2022-11-05T22:33:59.093Z,12.10
2022-11-05T22:39:02.303Z,12.00
2022-11-05T22:44:05.033Z,12.00
2022-11-05T22:49:09.188Z,12.00
2022-11-05T22:54:11.493Z,12.00
2022-11-05T22:59:15.333Z,12.00
2022-11-05T23:04:19.041Z,12.10
2022-11-05T23:09:23.068Z,12.10
2022-11-05T23:14:25.755Z,12.10
2022-11-05T23:19:29.848Z,12.20
2022-11-05T23:24:32.142Z,12.20
2022-11-05T23:29:34.487Z,12.20
2022-11-05T23:34:38.688Z,12.20
2022-11-05T23:39:42.897Z,12.30
2022-11-05T23:44:45.335Z,12.30
2022-11-05T23:49:49.003Z,12.30
2022-11-05T23:54:51.232Z,12.30
2022-11-05T23:59:53.535Z,12.30
